Time;durP1;ratioP1;P1;durP2;ratioP2;P2;SDS_P1;SDS_P2;PMS_P1;PMS_P2;Temp;Humidity;BMP_temperature;BMP_pressure;BME280_temperature;BME280_humidity;BME280_pressure;Samples;Min_cycle;Max_cycle;Signal;HPM_P1;HPM_P2
2024/04/26 11:31:28;;;;;;;;;;;;;;;;;;5461038;25;90743;-46
2024/04/26 11:38:16;;;;;;;;;;;24.20;46.00;;;;;;5396673;25;202837;-45
2024/04/26 11:40:45;;;;;;;;;;;24.00;49.70;;;;;;5403287;25;113608;-48
2024/04/26 12:02:33;;;;;;;;;;;23.60;50.80;;;;;;5456961;25;112484;-37
2024/04/26 12:05:00;;;;;;;;;;;23.50;47.10;;;;;;5374014;25;113090;-38
2024/04/26 12:07:26;;;;;;;;;;;23.70;46.90;;;;;;5362870;25;113051;-47
2024/04/26 12:09:51;;;;;;;;;;;24.10;49.80;;;;;;5369020;26;113151;-48
2024/04/26 12:12:17;;;;;;;;;;;24.50;48.30;;;;;;5358187;26;114754;-52
2024/04/26 12:17:11;;;;;;;;;;;24.70;44.80;;;;;;5414956;25;112617;-45
2024/04/26 12:19:37;;;;;;;;;;;24.50;44.80;;;;;;5341861;26;113656;-46
2024/04/26 12:22:02;;;;;;;;;;;24.00;45.70;;;;;;5340423;26;112732;-46
2024/04/26 12:24:28;;;;;;;;;;;23.70;46.60;;;;;;5321309;26;117135;-48
2024/04/26 12:26:55;;;;;;;;;;;24.50;49.00;;;;;;5330388;26;112101;-44
2024/04/26 12:29:22;;;;;;;;;;;24.40;45.90;;;;;;5326052;26;113112;-43
2024/04/26 12:31:52;;;;;;;;;;;24.30;45.20;;;;;;5318406;26;112445;-43
2024/04/26 12:34:18;;;;;;;;;;;24.60;45.70;;;;;;5331588;26;113264;-43
2024/04/26 12:36:44;;;;;;;;;;;24.30;45.70;;;;;;5323157;26;113028;-38
2024/04/26 12:39:12;;;;;;;;;;;24.30;45.70;;;;;;5337209;26;113113;-42
2024/04/26 12:41:44;;;;;;;;;;;24.30;49.20;;;;;;5327055;26;112314;-44
2024/04/26 12:44:13;;;;;;;;;;;24.70;46.30;;;;;;5322964;26;112678;-44
2024/04/26 12:48:06;;;;;;;;;;;24.70;46.30;;;;;;5418147;25;113463;-37
2024/04/26 12:50:32;;;;;;;;;;;24.60;45.50;;;;;;5413782;25;113478;-56
2024/04/26 12:52:57;;;;;;;;;;;24.60;44.40;;;;;;5413527;25;112961;-43
2024/04/26 12:56:47;;;;;;;;;;;24.50;45.40;;;;;;5301190;26;112166;-41
2024/04/26 12:59:12;;;;;;;;;;;24.40;46.20;;;;;;5287242;26;112896;-41
2024/04/26 13:01:38;;;;;;;;;;;24.30;46.50;;;;;;5255759;26;115183;-40
2024/04/26 13:04:04;;;;;;;;;;;24.30;47.10;;;;;;5272558;26;113526;-42
2024/04/26 13:06:31;;;;;;;;;;;24.40;47.40;;;;;;5275990;26;112563;-42
2024/04/26 13:08:57;;;;;;;;;;;24.40;47.30;;;;;;5271422;26;112204;-42
2024/04/26 13:11:23;;;;;;;;;;;24.40;46.70;;;;;;5270361;26;113128;-42
2024/04/26 13:13:52;;;;;;;;;;;24.40;47.10;;;;;;5271600;26;114335;-43
2024/04/26 13:16:19;;;;;;;;;;;24.40;47.20;;;;;;5278808;26;112982;-41
2024/04/26 13:18:49;;;;;;;;;;;24.40;47.00;;;;;;5269141;26;113504;-42
2024/04/26 13:21:15;;;;;;;;;;;24.40;46.80;;;;;;5264875;26;112379;-41
2024/04/26 13:23:41;;;;;;;;;;;24.40;47.30;;;;;;5271987;26;113433;-41
2024/04/26 13:26:08;;;;;;;;;;;24.40;46.80;;;;;;5285932;26;113705;-41
2024/04/26 13:28:34;;;;;;;;;;;24.40;47.30;;;;;;5277818;26;112678;-41
2024/04/26 13:31:00;;;;;;;;;;;24.40;47.30;;;;;;5275718;26;112825;-44
2024/04/26 13:33:25;;;;;;;;;;;24.50;47.00;;;;;;5272578;26;113706;-44
2024/04/26 13:35:51;;;;;;;;;;;24.50;47.20;;;;;;5263680;26;115456;-44
2024/04/26 13:38:17;;;;;;;;;;;24.50;47.20;;;;;;5283227;26;113654;-44
2024/04/26 13:40:42;;;;;;;;;;;24.50;47.70;;;;;;5276129;26;112106;-43
2024/04/26 13:43:09;;;;;;;;;;;24.50;47.40;;;;;;5278490;26;112534;-43
2024/04/26 13:45:34;;;;;;;;;;;24.60;47.40;;;;;;5278582;26;112827;-44
2024/04/26 13:48:00;;;;;;;;;;;24.60;47.50;;;;;;5263585;26;114440;-43
2024/04/26 13:50:26;;;;;;;;;;;24.50;47.30;;;;;;5283548;26;113885;-41
2024/04/26 13:52:52;;;;;;;;;;;24.60;47.50;;;;;;5292270;26;113223;-41
2024/04/26 13:55:17;;;;;;;;;;;24.60;47.60;;;;;;5289276;26;112912;-41
2024/04/26 13:57:43;;;;;;;;;;;24.60;47.40;;;;;;5288040;26;123219;-43
2024/04/26 14:00:09;;;;;;;;;;;24.60;47.50;;;;;;5295016;26;112674;-43
2024/04/26 14:02:35;;;;;;;;;;;24.60;47.40;;;;;;5285518;26;112695;-44
2024/04/26 14:05:01;;;;;;;;;;;24.60;47.50;;;;;;5284950;26;112350;-44
2024/04/26 14:07:31;;;;;;;;;;;24.60;47.60;;;;;;5252941;26;112810;-41
2024/04/26 14:12:38;;;;;;;;;;;24.70;49.90;;;;;;5473154;25;112495;-56
2024/04/26 14:15:05;;;;;;;;;;;24.90;47.10;;;;;;5427164;25;112737;-55
2024/04/26 14:17:31;;;;;;;;;;;25.00;46.30;;;;;;5426454;25;113048;-50
2024/04/26 14:19:58;;;;;;;;;;;25.10;45.70;;;;;;5390572;25;113259;-50
2024/04/26 14:22:24;;;;;;;;;;;25.00;46.50;;;;;;5426381;25;112814;-47
2024/04/26 14:24:50;;;;;;;;;;;24.90;45.60;;;;;;5413976;25;112541;-47
2024/04/26 14:27:15;;;;;;;;;;;25.10;46.20;;;;;;5428414;25;112573;-46
2024/04/26 14:29:41;;;;;;;;;;;25.20;45.90;;;;;;5388656;25;113119;-46
2024/04/26 14:32:07;;;;;;;;;;;25.30;45.00;;;;;;5392082;25;113531;-48
2024/04/26 14:34:33;;;;;;;;;;;25.40;45.30;;;;;;5382938;25;112858;-49
2024/04/26 14:36:58;;;;;;;;;;;25.40;45.30;;;;;;5361184;25;113592;-51
2024/04/26 14:39:26;;;;;;;;;;;25.40;44.80;;;;;;5360290;25;113045;-51
2024/04/26 14:41:52;;;;;;;;;;;25.30;45.80;;;;;;5402144;25;115209;-47
2024/04/26 14:44:18;;;;;;;;;;;25.30;45.40;;;;;;5397679;25;112852;-49
2024/04/26 14:46:44;;;;;;;;;;;25.30;45.00;;;;;;5408655;25;113227;-59
2024/04/26 14:49:10;;;;;;;;;;;25.00;47.70;;;;;;5359823;26;112760;-47
2024/04/26 14:51:36;;;;;;;;;;;24.90;48.30;;;;;;5363146;26;114201;-48
2024/04/26 14:54:02;;;;;;;;;;;;;;;;;;5362217;26;113212;-44
2024/04/26 14:56:28;;;;;;;;;;;;;;;;;;5354142;26;112815;-44
2024/04/26 14:58:54;;;;;;;;;;;;;;;;;;5364085;26;112742;-44
2024/04/26 15:01:20;;;;;;;;;;;24.70;48.90;;;;;;5357065;26;113956;-50
2024/04/26 15:03:46;;;;;;;;;;;24.90;48.60;;;;;;5329926;26;113150;-52
2024/04/26 15:06:13;;;;;;;;;;;24.90;45.40;;;;;;5311121;26;112570;-55
2024/04/26 15:08:39;;;;;;;;;;;24.90;49.70;;;;;;5358446;26;113309;-40
2024/04/26 15:11:05;;;;;;;;;;;24.90;46.10;;;;;;5329258;26;112807;-46
2024/04/26 15:13:31;;;;;;;;;;;25.10;45.00;;;;;;5326919;25;114622;-51
2024/04/26 15:15:58;;;;;;;;;;;24.90;45.50;;;;;;5400019;25;112911;-42
2024/04/26 15:25:45;;;;;;;;;;;25.50;49.00;;;;;;5408640;25;112451;-47
2024/04/26 15:28:11;;;;;;;;;;;25.20;44.80;;;;;;5351843;26;288822;-47
2024/04/26 15:30:37;;;;;;;;;;;25.00;44.90;;;;;;5324454;26;114637;-50
2024/04/26 15:33:06;;;;;;;;;;;25.10;44.90;;;;;;5328051;26;113028;-56
2024/04/26 15:37:30;;;;;;;;;;;25.10;46.30;;;;;;5370559;25;112943;-53
2024/04/26 15:39:57;;;;;;;;;;;25.00;44.70;;;;;;5294260;26;113464;-54
2024/04/26 15:42:23;;;;;;;;;;;25.00;45.10;;;;;;5309872;26;113181;-54
2024/04/26 15:44:49;;;;;;;;;;;25.10;46.30;;;;;;5256410;26;114772;-54
2024/04/26 15:47:16;;;;;;;;;;;25.10;46.00;;;;;;5315347;26;113033;-53
2024/04/26 15:49:45;;;;;;;;;;;25.10;46.90;;;;;;5288488;26;113401;-48
2024/04/26 15:52:12;;;;;;;;;;;25.10;45.90;;;;;;5313703;26;112711;-47
2024/04/26 15:54:38;;;;;;;;;;;25.20;46.30;;;;;;5315122;26;113008;-53
2024/04/26 15:57:04;;;;;;;;;;;25.20;45.80;;;;;;5312340;26;113090;-53
2024/04/26 15:59:31;;;;;;;;;;;25.10;46.30;;;;;;5298870;26;113500;-47
2024/04/26 16:02:02;;;;;;;;;;;25.10;46.60;;;;;;5297858;26;114362;-47
2024/04/26 16:04:31;;;;;;;;;;;25.10;46.50;;;;;;5300952;26;113232;-58
2024/04/26 16:06:57;;;;;;;;;;;25.00;46.80;;;;;;5288410;26;113099;-54
2024/04/26 16:09:23;;;;;;;;;;;25.00;46.70;;;;;;5298958;26;113007;-53
2024/04/26 16:11:49;;;;;;;;;;;25.00;46.70;;;;;;5307780;26;112550;-54
2024/04/26 16:14:15;;;;;;;;;;;24.90;46.80;;;;;;5283227;26;112920;-54
2024/04/26 16:16:41;;;;;;;;;;;25.00;47.20;;;;;;5299421;26;113825;-49
2024/04/26 16:19:07;;;;;;;;;;;25.00;46.80;;;;;;5302774;26;112816;-47
2024/04/26 16:21:33;;;;;;;;;;;25.00;46.90;;;;;;5287858;26;113128;-53
2024/04/26 16:23:59;;;;;;;;;;;25.00;47.20;;;;;;5282974;26;112972;-48
2024/04/26 16:26:25;;;;;;;;;;;25.00;47.20;;;;;;5298573;26;113840;-54
2024/04/26 16:28:51;;;;;;;;;;;25.00;46.90;;;;;;5279306;26;113563;-48
2024/04/26 16:31:18;;;;;;;;;;;25.00;47.10;;;;;;5295446;26;112725;-54
2024/04/26 16:33:48;;;;;;;;;;;25.00;46.80;;;;;;5295261;26;113475;-54
2024/04/26 16:36:34;;;;;;;;;;;25.00;46.70;;;;;;5320787;26;112697;-54
2024/04/26 16:39:04;;;;;;;;;;;25.00;46.90;;;;;;5285631;26;114942;-47
2024/04/26 16:41:31;;;;;;;;;;;24.90;46.80;;;;;;5272688;26;113203;-48
2024/04/26 16:43:58;;;;;;;;;;;24.90;46.90;;;;;;5254434;26;112959;-53
2024/04/26 16:46:27;;;;;;;;;;;24.90;46.70;;;;;;5296775;26;112911;-40
2024/04/26 16:48:56;;;;;;;;;;;24.80;46.80;;;;;;5269634;26;113371;-37
2024/04/26 16:51:27;;;;;;;;;;;24.50;47.90;;;;;;5270655;26;114207;-37
2024/04/26 16:53:59;;;;;;;;;;;24.50;47.80;;;;;;5264227;26;112764;-37
2024/04/26 16:56:26;;;;;;;;;;;24.50;47.90;;;;;;5273676;26;113203;-40
2024/04/26 16:58:52;;;;;;;;;;;24.50;48.00;;;;;;5272113;26;113912;-38
2024/04/26 17:01:19;;;;;;;;;;;24.60;48.00;;;;;;5276774;26;114923;-37
2024/04/26 17:03:46;;;;;;;;;;;24.60;48.10;;;;;;5282816;26;114480;-38
2024/04/26 17:06:12;;;;;;;;;;;24.50;48.40;;;;;;5270807;26;112837;-40
2024/04/26 17:08:39;;;;;;;;;;;24.40;48.40;;;;;;5271585;26;112917;-46
2024/04/26 17:11:05;;;;;;;;;;;24.40;47.00;;;;;;5274728;26;113409;-39
2024/04/26 17:13:31;;;;;;;;;;;24.30;46.40;;;;;;5273700;26;112942;-37
2024/04/26 17:15:59;;;;;;;;;;;24.30;48.70;;;;;;5267901;26;112951;-39
2024/04/26 17:18:25;;;;;;;;;;;24.20;47.00;;;;;;5270825;26;112821;-39
2024/04/26 17:20:50;;;;;;;;;;;24.20;47.10;;;;;;5271725;26;112769;-38
2024/04/26 17:23:16;;;;;;;;;;;24.20;47.40;;;;;;5281768;26;115917;-38
2024/04/26 17:25:42;;;;;;;;;;;24.30;46.70;;;;;;5300315;26;112699;-37
